createdAt,value
2023-01-29T00:02:20.021Z,4.80
2023-01-29T00:04:47.514Z,4.60
2023-01-29T00:07:15.303Z,5.17
2023-01-29T00:09:42.581Z,4.20
2023-01-29T00:12:10.008Z,5.00
2023-01-29T00:14:37.303Z,4.87
2023-01-29T00:17:04.804Z,5.03
2023-01-29T00:19:32.105Z,4.60
2023-01-29T00:21:59.430Z,5.13
2023-01-29T00:24:26.887Z,5.30
2023-01-29T00:26:54.293Z,5.13
2023-01-29T00:29:22.007Z,5.00
2023-01-29T00:31:49.904Z,5.20
2023-01-29T00:34:17.426Z,4.60
2023-01-29T00:36:45.600Z,4.57
2023-01-29T00:39:13.364Z,4.77
2023-01-29T00:41:59.396Z,5.87
2023-01-29T00:44:45.165Z,4.87
2023-01-29T00:47:31.032Z,4.80
2023-01-29T00:49:59.965Z,4.93
2023-01-29T00:52:28.354Z,5.17
2023-01-29T00:54:57.781Z,5.20
2023-01-29T00:57:27.615Z,5.20
2023-01-29T00:59:55.368Z,5.20
2023-01-29T01:02:42.235Z,5.53
2023-01-29T01:05:14.138Z,5.97
2023-01-29T01:07:41.649Z,6.07
2023-01-29T01:10:22.455Z,5.30
2023-01-29T01:13:02.117Z,5.20
2023-01-29T01:15:34.321Z,7.13
2023-01-29T01:18:03.053Z,6.10
2023-01-29T01:20:32.527Z,5.50
2023-01-29T01:22:59.876Z,5.20
2023-01-29T01:25:27.660Z,4.93
2023-01-29T01:30:27.111Z,5.27
2023-01-29T01:32:54.541Z,5.30
2023-01-29T01:35:21.923Z,5.70
2023-01-29T01:37:49.769Z,5.47
2023-01-29T01:40:22.566Z,6.73
2023-01-29T01:43:01.660Z,5.97
2023-01-29T01:45:36.839Z,5.47
2023-01-29T01:48:12.903Z,5.53
2023-01-29T01:51:00.720Z,6.07
2023-01-29T01:53:44.848Z,5.23
2023-01-29T01:56:22.887Z,5.40
2023-01-29T01:58:56.197Z,6.07
2023-01-29T02:01:27.620Z,5.07
2023-01-29T02:04:24.222Z,6.00
2023-01-29T02:07:12.406Z,5.00
2023-01-29T02:09:46.481Z,5.13
2023-01-29T02:12:16.689Z,6.00
2023-01-29T02:14:44.601Z,6.10
2023-01-29T02:17:18.546Z,6.13
2023-01-29T02:20:04.711Z,5.57
2023-01-29T02:23:15.775Z,6.13
2023-01-29T02:26:09.651Z,5.20
2023-01-29T02:28:53.294Z,5.20
2023-01-29T02:31:44.504Z,5.63
2023-01-29T02:34:32.808Z,6.60
2023-01-29T02:37:13.597Z,5.23
2023-01-29T02:39:54.389Z,5.07
2023-01-29T02:42:31.985Z,5.57
2023-01-29T02:45:11.766Z,6.03
2023-01-29T02:47:48.673Z,5.27
2023-01-29T02:50:38.324Z,5.33
2023-01-29T02:53:20.640Z,5.40
2023-01-29T02:56:03.381Z,6.73
2023-01-29T02:58:52.011Z,5.77
2023-01-29T03:01:27.117Z,6.60
2023-01-29T03:04:00.783Z,5.80
2023-01-29T03:06:35.193Z,5.33
2023-01-29T03:09:07.955Z,4.87
2023-01-29T03:11:45.888Z,5.80
2023-01-29T03:14:51.685Z,5.37
2023-01-29T03:17:24.321Z,6.93
2023-01-29T03:19:51.650Z,5.83
2023-01-29T03:22:23.685Z,6.40
2023-01-29T03:25:14.169Z,5.93
2023-01-29T03:28:17.130Z,5.30
2023-01-29T03:31:19.126Z,5.70
2023-01-29T03:33:56.861Z,5.93
2023-01-29T03:36:38.517Z,5.67
2023-01-29T03:39:08.567Z,6.70
2023-01-29T03:42:02.616Z,6.20
2023-01-29T03:45:00.976Z,6.10
2023-01-29T03:48:01.996Z,6.87
2023-01-29T03:50:52.809Z,7.00
2023-01-29T03:53:34.980Z,6.97
2023-01-29T03:56:07.071Z,5.67
2023-01-29T03:58:46.538Z,6.20
2023-01-29T04:01:37.054Z,6.53
2023-01-29T04:04:16.999Z,6.23
2023-01-29T04:06:47.303Z,6.57
2023-01-29T04:09:24.907Z,6.40
2023-01-29T04:12:08.998Z,6.17
2023-01-29T04:14:38.840Z,6.33
2023-01-29T04:17:22.698Z,6.07
2023-01-29T04:20:11.346Z,5.83
2023-01-29T04:22:48.219Z,6.20
2023-01-29T04:25:26.497Z,5.47
2023-01-29T04:28:23.156Z,6.23
2023-01-29T04:31:06.724Z,6.33
2023-01-29T04:34:01.960Z,5.53
2023-01-29T04:36:54.254Z,6.27
2023-01-29T04:39:45.121Z,7.27
2023-01-29T04:42:18.915Z,7.07
2023-01-29T04:45:01.679Z,6.67
2023-01-29T04:47:46.945Z,6.03
2023-01-29T04:50:17.496Z,5.60
2023-01-29T04:53:00.218Z,6.87
2023-01-29T04:55:43.298Z,6.67
2023-01-29T04:58:39.514Z,6.97
2023-01-29T05:01:11.271Z,6.27
2023-01-29T05:03:41.267Z,6.57
2023-01-29T05:06:11.213Z,5.33
2023-01-29T05:08:40.976Z,6.10
2023-01-29T05:11:08.829Z,6.97
2023-01-29T05:13:39.655Z,5.97
2023-01-29T05:16:13.636Z,6.17
2023-01-29T05:18:41.068Z,6.80
2023-01-29T05:21:09.426Z,6.30
2023-01-29T05:23:36.829Z,7.40
2023-01-29T05:26:05.143Z,6.93
2023-01-29T05:28:32.526Z,6.20
2023-01-29T05:31:01.295Z,5.93
2023-01-29T05:33:31.218Z,5.77
2023-01-29T05:36:00.191Z,5.47
2023-01-29T05:38:27.713Z,5.63
2023-01-29T05:40:58.049Z,5.73
2023-01-29T05:43:25.866Z,6.53
2023-01-29T05:45:55.371Z,5.90
2023-01-29T05:48:22.886Z,6.20
2023-01-29T05:50:50.823Z,5.33
2023-01-29T05:53:18.066Z,7.17
2023-01-29T05:55:49.282Z,6.10
2023-01-29T05:58:16.528Z,6.90
2023-01-29T06:00:43.967Z,6.57
2023-01-29T06:03:11.501Z,6.63
2023-01-29T06:05:39.592Z,6.87
2023-01-29T06:08:07.794Z,7.47
2023-01-29T06:10:35.140Z,7.57
2023-01-29T06:13:03.011Z,7.17
2023-01-29T06:15:30.452Z,7.10
2023-01-29T06:17:57.966Z,5.67
2023-01-29T06:20:25.585Z,7.80
2023-01-29T06:22:52.791Z,6.97
2023-01-29T06:25:20.189Z,7.00
2023-01-29T06:27:50.939Z,7.03
2023-01-29T06:30:18.703Z,6.13
2023-01-29T06:32:46.313Z,6.97
2023-01-29T06:35:13.913Z,6.77
2023-01-29T06:37:41.414Z,7.07
2023-01-29T06:40:09.186Z,6.87
2023-01-29T06:42:36.621Z,5.77
2023-01-29T06:45:04.214Z,6.10
2023-01-29T06:47:31.659Z,7.13
2023-01-29T06:49:58.962Z,4.83
2023-01-29T06:52:28.882Z,6.40
2023-01-29T06:54:56.717Z,6.37
2023-01-29T06:57:24.460Z,6.27
2023-01-29T06:59:51.719Z,7.10
2023-01-29T07:02:19.116Z,7.00
2023-01-29T07:04:46.539Z,7.27
2023-01-29T07:07:13.982Z,7.03
2023-01-29T07:09:42.515Z,7.07
2023-01-29T07:12:10.902Z,6.30
2023-01-29T07:14:38.139Z,6.27
2023-01-29T07:17:05.522Z,7.17
2023-01-29T07:19:33.016Z,6.03
2023-01-29T07:22:02.459Z,6.43
2023-01-29T07:24:30.071Z,6.23
2023-01-29T07:26:58.172Z,6.30
2023-01-29T07:29:25.483Z,7.13
2023-01-29T07:31:52.908Z,5.80
2023-01-29T07:34:20.527Z,7.27
2023-01-29T07:36:47.983Z,7.63
2023-01-29T07:39:15.465Z,7.03
2023-01-29T07:41:42.849Z,6.73
2023-01-29T07:44:16.584Z,6.17
2023-01-29T07:46:44.252Z,7.40
2023-01-29T07:49:11.798Z,6.27
2023-01-29T07:51:39.494Z,7.27
2023-01-29T07:54:06.812Z,6.53
2023-01-29T07:56:34.199Z,7.40
2023-01-29T07:59:01.556Z,6.70
2023-01-29T08:01:29.306Z,7.23
2023-01-29T08:03:56.770Z,6.90
2023-01-29T08:06:24.175Z,5.70
2023-01-29T08:08:52.277Z,5.80
2023-01-29T08:11:19.720Z,6.27
2023-01-29T08:13:47.330Z,5.50
2023-01-29T08:16:14.795Z,5.53
2023-01-29T08:18:47.618Z,5.67
2023-01-29T08:21:16.070Z,5.77
2023-01-29T08:23:43.576Z,5.80
2023-01-29T08:26:11.257Z,5.97
2023-01-29T08:28:41.519Z,5.97
2023-01-29T08:31:20.757Z,6.13
2023-01-29T08:33:49.140Z,5.70
2023-01-29T08:36:16.675Z,6.43
2023-01-29T08:38:44.090Z,6.83
2023-01-29T08:41:11.456Z,6.77
2023-01-29T08:43:39.774Z,6.47
2023-01-29T08:46:07.549Z,6.67
2023-01-29T08:48:35.005Z,5.53
2023-01-29T08:51:02.988Z,6.70
2023-01-29T08:53:31.405Z,6.53
2023-01-29T08:55:58.933Z,6.67
2023-01-29T08:58:26.409Z,6.30
2023-01-29T09:00:53.817Z,6.27
2023-01-29T09:03:21.092Z,5.67
2023-01-29T09:05:48.688Z,5.83
2023-01-29T09:08:16.121Z,5.37
2023-01-29T09:10:43.548Z,4.80
2023-01-29T09:13:11.092Z,5.80
2023-01-29T09:15:38.546Z,5.20
2023-01-29T09:18:06.183Z,5.77
2023-01-29T09:20:34.016Z,5.43
2023-01-29T09:23:10.164Z,5.47
2023-01-29T09:25:37.772Z,4.87
2023-01-29T09:28:06.216Z,5.10
2023-01-29T09:30:34.620Z,5.17
2023-01-29T09:33:02.067Z,4.80
2023-01-29T09:35:29.582Z,5.73
2023-01-29T09:37:57.543Z,5.60
2023-01-29T09:40:35.530Z,5.07
2023-01-29T09:43:19.846Z,5.30
2023-01-29T09:45:52.540Z,5.47
2023-01-29T09:48:21.998Z,5.30
2023-01-29T09:50:52.681Z,5.37
2023-01-29T09:53:54.567Z,5.77
2023-01-29T09:56:28.614Z,4.93
2023-01-29T09:59:01.562Z,6.33
2023-01-29T10:02:09.130Z,6.27
2023-01-29T10:05:04.735Z,5.57
2023-01-29T10:08:01.123Z,6.17
2023-01-29T10:10:32.233Z,6.90
2023-01-29T10:13:25.820Z,6.00
2023-01-29T10:16:14.300Z,6.07
2023-01-29T10:19:19.185Z,5.70
2023-01-29T10:22:08.040Z,6.33
2023-01-29T10:24:57.442Z,6.20
2023-01-29T10:27:31.158Z,7.10
2023-01-29T10:30:00.445Z,6.40
2023-01-29T10:32:29.234Z,5.70
2023-01-29T10:34:58.452Z,5.77
2023-01-29T10:37:39.560Z,6.17
2023-01-29T10:40:25.957Z,5.63
2023-01-29T10:43:03.039Z,5.80
2023-01-29T10:45:39.228Z,7.03
2023-01-29T10:48:45.900Z,5.67
2023-01-29T10:51:23.899Z,5.80
2023-01-29T10:54:03.587Z,5.77
2023-01-29T10:57:08.619Z,5.60
2023-01-29T10:59:47.567Z,5.67
2023-01-29T11:02:21.240Z,5.20
2023-01-29T11:04:48.956Z,6.70
2023-01-29T11:07:19.488Z,5.30
2023-01-29T11:10:02.555Z,5.87
2023-01-29T11:12:32.034Z,5.53
2023-01-29T11:15:16.683Z,5.20
2023-01-29T11:18:05.968Z,6.10
2023-01-29T11:20:34.602Z,6.10
2023-01-29T11:23:02.319Z,5.30
2023-01-29T11:25:32.494Z,5.50
2023-01-29T11:28:01.872Z,5.57
2023-01-29T11:30:37.228Z,5.40
2023-01-29T11:33:19.845Z,6.57
2023-01-29T11:35:47.817Z,5.90
2023-01-29T11:38:21.434Z,5.77
2023-01-29T11:40:49.457Z,5.90
2023-01-29T11:43:30.958Z,6.20
2023-01-29T11:46:02.601Z,5.90
2023-01-29T11:48:40.284Z,5.67
2023-01-29T11:51:10.266Z,6.17
2023-01-29T11:53:41.942Z,6.07
2023-01-29T11:56:29.475Z,5.83
2023-01-29T11:58:58.714Z,5.40
2023-01-29T12:01:42.140Z,7.50
2023-01-29T12:04:20.710Z,6.10
2023-01-29T12:06:51.933Z,5.60
2023-01-29T12:09:27.147Z,5.63
2023-01-29T12:11:54.497Z,5.90
2023-01-29T12:14:34.022Z,5.63
2023-01-29T12:17:25.484Z,5.60
2023-01-29T12:20:01.307Z,5.77
2023-01-29T12:22:48.784Z,6.17
2023-01-29T12:25:42.444Z,5.40
2023-01-29T12:28:34.285Z,4.90
2023-01-29T12:31:27.753Z,5.47
2023-01-29T12:34:10.103Z,6.37
2023-01-29T12:36:55.145Z,5.10
2023-01-29T12:39:22.808Z,5.63
2023-01-29T12:42:13.140Z,6.13
2023-01-29T12:44:59.544Z,5.80
2023-01-29T12:47:30.912Z,5.77
2023-01-29T12:50:06.509Z,5.40
2023-01-29T12:52:42.964Z,6.43
2023-01-29T12:55:18.215Z,6.10
2023-01-29T12:58:01.805Z,6.87
2023-01-29T13:00:35.898Z,6.03
2023-01-29T13:03:18.478Z,5.30
2023-01-29T13:05:53.476Z,5.40
2023-01-29T13:08:32.125Z,6.33
2023-01-29T13:11:02.897Z,6.00
2023-01-29T13:13:53.999Z,6.87
2023-01-29T13:16:27.890Z,5.53
2023-01-29T13:19:06.380Z,6.37
2023-01-29T13:21:42.101Z,5.40
2023-01-29T13:24:21.629Z,6.50
2023-01-29T13:26:49.610Z,5.57
2023-01-29T13:29:25.630Z,6.50
2023-01-29T13:31:55.655Z,6.13
2023-01-29T13:34:35.126Z,5.83
2023-01-29T13:37:09.794Z,5.83
2023-01-29T13:39:44.561Z,5.40
2023-01-29T13:42:18.977Z,6.87
2023-01-29T13:44:53.352Z,6.03
2023-01-29T13:47:28.101Z,5.93
2023-01-29T13:50:01.880Z,6.13
2023-01-29T13:52:53.308Z,6.23
2023-01-29T13:55:31.125Z,6.13
2023-01-29T13:58:19.888Z,6.37
2023-01-29T14:00:51.082Z,6.53
2023-01-29T14:03:25.761Z,6.10
2023-01-29T14:05:54.315Z,6.93
2023-01-29T14:08:43.999Z,6.60
2023-01-29T14:11:17.974Z,6.80
2023-01-29T14:13:49.875Z,6.50
2023-01-29T14:16:17.325Z,6.50
2023-01-29T14:19:04.503Z,7.00
2023-01-29T14:21:34.686Z,7.07
2023-01-29T14:24:16.958Z,6.20
2023-01-29T14:26:47.497Z,6.97
2023-01-29T14:29:34.200Z,7.63
2023-01-29T14:32:07.764Z,6.20
2023-01-29T14:34:55.220Z,6.97
2023-01-29T14:37:34.321Z,6.63
2023-01-29T14:40:12.283Z,7.07
2023-01-29T14:43:02.232Z,6.67
2023-01-29T14:45:44.636Z,7.17
2023-01-29T14:48:37.053Z,5.87
2023-01-29T14:51:11.207Z,6.77
2023-01-29T14:53:58.407Z,8.07
2023-01-29T14:56:33.254Z,7.13
2023-01-29T14:59:13.308Z,7.53
2023-01-29T15:01:54.630Z,6.97
2023-01-29T15:04:40.205Z,6.67
2023-01-29T15:07:23.138Z,7.37
2023-01-29T15:10:21.895Z,7.67
2023-01-29T15:13:01.435Z,7.27
2023-01-29T15:15:52.165Z,7.53
2023-01-29T15:18:31.364Z,7.67
2023-01-29T15:21:14.594Z,8.10
2023-01-29T15:23:43.365Z,8.07
2023-01-29T15:26:20.994Z,7.50
2023-01-29T15:29:04.924Z,7.33
2023-01-29T15:31:35.057Z,7.87
2023-01-29T15:34:06.609Z,7.93
2023-01-29T15:36:34.370Z,8.17
2023-01-29T15:39:24.844Z,8.47
2023-01-29T15:42:12.061Z,8.50
2023-01-29T15:44:45.636Z,7.17
2023-01-29T15:47:14.537Z,8.37
2023-01-29T15:49:42.656Z,8.10
2023-01-29T15:52:19.141Z,8.57
2023-01-29T15:54:47.055Z,7.67
2023-01-29T15:57:41.380Z,7.23
2023-01-29T16:00:29.786Z,7.40
2023-01-29T16:02:58.346Z,8.20
2023-01-29T16:05:29.297Z,7.23
2023-01-29T16:07:57.932Z,8.47
2023-01-29T16:10:28.861Z,7.53
2023-01-29T16:12:57.320Z,7.33
2023-01-29T16:15:34.503Z,8.00
2023-01-29T16:18:19.248Z,8.00
2023-01-29T16:20:51.915Z,8.17
2023-01-29T16:23:25.309Z,8.67
2023-01-29T16:25:53.725Z,7.47
2023-01-29T16:28:21.727Z,7.83
2023-01-29T16:30:56.991Z,8.57
2023-01-29T16:33:33.303Z,7.60
2023-01-29T16:36:00.873Z,8.20
2023-01-29T16:38:32.124Z,7.37
2023-01-29T16:41:08.518Z,8.53
2023-01-29T16:43:49.038Z,7.13
2023-01-29T16:46:24.291Z,8.97
2023-01-29T16:48:52.368Z,10.30
2023-01-29T16:51:36.521Z,8.23
2023-01-29T16:54:19.517Z,8.43
2023-01-29T16:56:49.870Z,8.10
2023-01-29T16:59:21.787Z,8.03
2023-01-29T17:01:50.835Z,7.93
2023-01-29T17:04:19.368Z,9.77
2023-01-29T17:06:50.014Z,10.27
2023-01-29T17:09:36.182Z,9.37
2023-01-29T17:12:06.827Z,9.87
2023-01-29T17:14:37.877Z,9.57
2023-01-29T17:17:13.351Z,10.50
2023-01-29T17:19:40.704Z,10.73
2023-01-29T17:22:14.601Z,10.50
2023-01-29T17:24:42.521Z,10.97
2023-01-29T17:27:19.355Z,11.07
2023-01-29T17:29:46.908Z,10.50
2023-01-29T17:32:17.276Z,11.63
2023-01-29T17:34:46.363Z,10.77
2023-01-29T17:37:15.665Z,12.20
2023-01-29T17:39:44.170Z,11.03
2023-01-29T17:42:14.863Z,11.93
2023-01-29T17:44:43.285Z,11.07
2023-01-29T17:47:17.698Z,12.33
2023-01-29T17:49:44.969Z,12.33
2023-01-29T17:52:12.294Z,12.00
2023-01-29T17:54:39.625Z,12.67
2023-01-29T17:57:07.063Z,13.43
2023-01-29T17:59:34.665Z,12.90
2023-01-29T18:02:02.089Z,14.07
2023-01-29T18:04:29.428Z,12.93
2023-01-29T18:06:57.566Z,13.47
2023-01-29T18:09:25.507Z,12.43
2023-01-29T18:11:53.532Z,12.50
2023-01-29T18:14:20.822Z,13.07
2023-01-29T18:16:48.206Z,12.63
2023-01-29T18:19:23.683Z,12.10
2023-01-29T18:21:51.916Z,12.20
2023-01-29T18:24:20.347Z,13.97
2023-01-29T18:26:49.226Z,12.23
2023-01-29T18:29:16.526Z,14.27
2023-01-29T18:31:44.049Z,14.27
2023-01-29T18:34:11.476Z,16.27
2023-01-29T18:36:38.739Z,14.70
2023-01-29T18:39:05.949Z,15.07
2023-01-29T18:41:33.899Z,17.20
2023-01-29T18:44:01.267Z,16.53
2023-01-29T18:46:28.748Z,18.67
2023-01-29T18:48:56.863Z,16.77
2023-01-29T18:51:24.188Z,17.33
2023-01-29T18:53:52.449Z,16.43
2023-01-29T18:56:20.288Z,15.47
2023-01-29T18:58:51.959Z,14.83
2023-01-29T19:01:20.021Z,14.87
2023-01-29T19:03:47.673Z,12.10
2023-01-29T19:06:15.126Z,13.53
2023-01-29T19:08:43.892Z,11.50
2023-01-29T19:11:12.587Z,11.80
2023-01-29T19:13:40.816Z,10.43
2023-01-29T19:16:10.435Z,10.17
2023-01-29T19:18:38.739Z,11.07
2023-01-29T19:21:08.455Z,10.43
2023-01-29T19:23:35.984Z,11.47
2023-01-29T19:26:03.429Z,11.97
2023-01-29T19:28:30.690Z,11.73
2023-01-29T19:30:59.353Z,12.30
2023-01-29T19:33:27.760Z,13.53
2023-01-29T19:35:59.616Z,12.50
2023-01-29T19:38:28.141Z,11.47
2023-01-29T19:40:55.864Z,12.57
2023-01-29T19:43:23.880Z,11.47
2023-01-29T19:46:00.787Z,12.03
2023-01-29T19:48:28.428Z,12.67
2023-01-29T19:51:01.017Z,10.13
2023-01-29T19:53:29.003Z,11.13
2023-01-29T19:56:04.553Z,11.67
2023-01-29T19:58:32.918Z,11.57
2023-01-29T20:01:02.917Z,9.27
2023-01-29T20:03:30.701Z,10.17
2023-01-29T20:06:06.164Z,11.83
2023-01-29T20:08:34.395Z,10.57
2023-01-29T20:11:02.792Z,10.97
2023-01-29T20:13:30.180Z,10.10
2023-01-29T20:15:58.058Z,10.43
2023-01-29T20:18:25.417Z,10.87
2023-01-29T20:20:53.086Z,9.63
2023-01-29T20:23:36.762Z,11.03
2023-01-29T20:26:07.302Z,10.17
2023-01-29T20:28:35.605Z,11.13
2023-01-29T20:31:04.089Z,10.30
2023-01-29T20:33:32.426Z,11.20
2023-01-29T20:36:03.248Z,12.30
2023-01-29T20:38:31.662Z,10.57
2023-01-29T20:41:04.937Z,10.87
2023-01-29T20:43:33.559Z,10.77
2023-01-29T20:46:01.909Z,14.83
2023-01-29T20:48:30.099Z,11.90
2023-01-29T20:51:03.067Z,11.93
2023-01-29T20:53:30.438Z,11.70
2023-01-29T20:55:59.146Z,13.67
2023-01-29T20:58:26.723Z,12.23
2023-01-29T21:00:54.083Z,13.30
2023-01-29T21:03:21.610Z,13.00
2023-01-29T21:05:50.216Z,16.13
2023-01-29T21:08:17.665Z,13.73
2023-01-29T21:10:45.680Z,17.07
2023-01-29T21:13:13.162Z,16.10
2023-01-29T21:15:42.576Z,13.70
2023-01-29T21:18:10.474Z,15.03
2023-01-29T21:20:37.973Z,15.63
2023-01-29T21:23:07.166Z,13.77
2023-01-29T21:25:35.088Z,13.43
2023-01-29T21:28:04.317Z,12.37
2023-01-29T21:30:32.485Z,13.23
2023-01-29T21:32:59.990Z,11.50
2023-01-29T21:35:27.447Z,11.17
2023-01-29T21:37:54.786Z,12.00
2023-01-29T21:40:22.337Z,10.13
2023-01-29T21:43:08.411Z,9.67
2023-01-29T21:45:35.946Z,11.20
2023-01-29T21:48:03.883Z,10.80
2023-01-29T21:50:31.259Z,12.10
2023-01-29T21:52:58.671Z,11.93
2023-01-29T21:55:26.194Z,13.57
2023-01-29T21:57:53.600Z,14.73
2023-01-29T22:00:20.986Z,14.03
2023-01-29T22:02:50.170Z,12.33
2023-01-29T22:05:20.015Z,12.93
2023-01-29T22:07:49.307Z,14.60
2023-01-29T22:10:18.542Z,13.60
2023-01-29T22:12:47.136Z,12.57
2023-01-29T22:15:15.655Z,13.00
2023-01-29T22:17:43.733Z,13.20
2023-01-29T22:20:13.144Z,12.50
2023-01-29T22:22:41.073Z,12.60
2023-01-29T22:25:09.359Z,13.13
2023-01-29T22:27:37.244Z,11.83
2023-01-29T22:30:05.517Z,13.00
2023-01-29T22:32:33.032Z,11.03
2023-01-29T22:35:00.365Z,12.90
2023-01-29T22:37:27.737Z,12.20
2023-01-29T22:39:55.027Z,10.80
2023-01-29T22:42:22.239Z,11.80
2023-01-29T22:44:49.895Z,10.67
2023-01-29T22:47:17.449Z,10.63
2023-01-29T22:49:49.027Z,12.57
2023-01-29T22:52:21.422Z,11.30
2023-01-29T22:54:48.998Z,10.00
2023-01-29T22:57:16.506Z,10.53
2023-01-29T22:59:43.776Z,11.77
2023-01-29T23:02:11.325Z,10.70
2023-01-29T23:04:38.553Z,12.73
2023-01-29T23:07:05.894Z,11.63
2023-01-29T23:09:33.157Z,11.77
2023-01-29T23:12:01.250Z,12.80
2023-01-29T23:14:28.451Z,11.70
2023-01-29T23:16:55.865Z,10.87
2023-01-29T23:19:23.242Z,10.33
2023-01-29T23:21:50.574Z,11.53
2023-01-29T23:24:17.771Z,11.37
2023-01-29T23:27:03.896Z,11.80
2023-01-29T23:29:31.106Z,12.13
2023-01-29T23:31:58.560Z,10.37
2023-01-29T23:34:26.171Z,11.20
2023-01-29T23:36:53.509Z,11.30
2023-01-29T23:39:20.825Z,11.10
2023-01-29T23:41:48.244Z,11.03
2023-01-29T23:44:15.659Z,10.13
2023-01-29T23:46:44.057Z,11.87
2023-01-29T23:49:11.799Z,11.10
2023-01-29T23:51:39.338Z,12.10
2023-01-29T23:54:06.981Z,10.93
2023-01-29T23:56:34.506Z,12.83
2023-01-29T23:59:01.761Z,12.63
